createdAt,value
2019-03-17T00:00:35.326Z,0
2019-03-17T00:01:56.706Z,0
2019-03-17T00:03:06.951Z,0
2019-03-17T00:04:16.870Z,0
2019-03-17T00:05:26.945Z,0
2019-03-17T00:06:36.868Z,0
2019-03-17T00:07:46.780Z,0
2019-03-17T00:08:56.455Z,0
2019-03-17T00:10:06.375Z,0
2019-03-17T00:11:16.427Z,0
2019-03-17T00:12:26.361Z,0
2019-03-17T00:13:36.294Z,0
2019-03-17T00:14:46.231Z,0
2019-03-17T00:15:56.146Z,0
2019-03-17T00:17:06.058Z,0
2019-03-17T00:18:15.976Z,0
2019-03-17T00:19:27.578Z,0
2019-03-17T00:20:37.607Z,0
2019-03-17T00:21:47.544Z,0
2019-03-17T00:22:57.457Z,0
2019-03-17T00:24:07.373Z,0
2019-03-17T00:25:19.366Z,0
2019-03-17T00:26:29.283Z,0
2019-03-17T00:27:39.198Z,0
2019-03-17T00:28:51.594Z,0
2019-03-17T00:30:01.523Z,0
2019-03-17T00:31:22.748Z,0
2019-03-17T00:32:33.060Z,0
2019-03-17T00:33:46.010Z,0
2019-03-17T00:34:58.159Z,0
2019-03-17T00:36:08.092Z,0
2019-03-17T00:37:17.759Z,0
2019-03-17T00:38:27.682Z,0
2019-03-17T00:39:37.602Z,0
2019-03-17T00:40:47.524Z,0
2019-03-17T00:41:57.468Z,0
2019-03-17T00:43:07.403Z,0
2019-03-17T00:44:17.320Z,0
2019-03-17T00:45:27.335Z,0
2019-03-17T00:46:37.000Z,0
2019-03-17T00:47:46.929Z,0
2019-03-17T00:48:56.854Z,0
2019-03-17T00:50:06.786Z,0
2019-03-17T00:51:16.705Z,0
2019-03-17T00:52:26.631Z,0
2019-03-17T00:53:36.553Z,0
2019-03-17T00:54:46.466Z,0
2019-03-17T00:55:56.130Z,0
2019-03-17T00:57:06.040Z,0
2019-03-17T00:58:15.959Z,0
2019-03-17T00:59:25.964Z,0
2019-03-17T01:00:35.894Z,0
2019-03-17T01:01:45.822Z,0
2019-03-17T01:02:55.837Z,0
2019-03-17T01:04:05.751Z,0
2019-03-17T01:05:15.434Z,0
2019-03-17T01:06:25.361Z,0
2019-03-17T01:07:35.321Z,0
2019-03-17T01:08:45.249Z,0
2019-03-17T01:09:55.167Z,0
2019-03-17T01:11:05.087Z,0
2019-03-17T01:12:15.002Z,0
2019-03-17T01:13:24.929Z,0
2019-03-17T01:14:34.861Z,0
2019-03-17T01:15:44.783Z,0
2019-03-17T01:16:54.701Z,0
2019-03-17T01:18:04.620Z,0
2019-03-17T01:19:14.532Z,0
2019-03-17T01:20:24.448Z,0
2019-03-17T01:21:34.410Z,0
2019-03-17T01:22:44.348Z,0
2019-03-17T01:23:54.265Z,0
2019-03-17T01:25:04.211Z,0
2019-03-17T01:26:14.124Z,0
2019-03-17T01:27:24.039Z,0
2019-03-17T01:28:33.957Z,0
2019-03-17T01:29:43.872Z,0
2019-03-17T01:30:53.802Z,0
2019-03-17T01:32:03.718Z,0
2019-03-17T01:33:13.637Z,0
2019-03-17T01:34:23.562Z,0
2019-03-17T01:35:35.180Z,0
2019-03-17T01:36:45.096Z,0
2019-03-17T01:37:55.009Z,0
2019-03-17T01:39:05.020Z,0
2019-03-17T01:40:14.964Z,0
2019-03-17T01:41:24.892Z,0
2019-03-17T01:42:34.553Z,0
2019-03-17T01:43:44.576Z,0
2019-03-17T01:44:54.494Z,0
2019-03-17T01:46:04.415Z,0
2019-03-17T01:47:14.348Z,0
2019-03-17T01:48:24.274Z,0
2019-03-17T01:49:34.053Z,0
2019-03-17T01:50:43.981Z,0
2019-03-17T01:51:53.909Z,0
2019-03-17T01:53:03.823Z,0
2019-03-17T01:54:13.742Z,0
2019-03-17T01:55:23.761Z,0
2019-03-17T01:56:33.706Z,0
2019-03-17T01:57:43.620Z,0
2019-03-17T01:58:53.530Z,0
2019-03-17T02:00:03.216Z,0
2019-03-17T02:01:14.480Z,0
2019-03-17T02:02:24.400Z,0
2019-03-17T02:03:34.321Z,0
2019-03-17T02:04:44.233Z,0
2019-03-17T02:05:54.152Z,0
2019-03-17T02:07:04.165Z,0
2019-03-17T02:08:14.083Z,0
2019-03-17T02:09:23.995Z,0
2019-03-17T02:10:33.908Z,0
2019-03-17T02:11:43.826Z,0
2019-03-17T02:12:53.838Z,0
2019-03-17T02:14:03.753Z,0
2019-03-17T02:15:13.691Z,0
2019-03-17T02:16:23.608Z,0
2019-03-17T02:17:33.524Z,0
2019-03-17T02:18:43.593Z,0
2019-03-17T02:19:53.516Z,0
2019-03-17T02:21:03.432Z,0
2019-03-17T02:22:13.347Z,0
2019-03-17T02:23:23.270Z,0
2019-03-17T02:24:33.282Z,0
2019-03-17T02:25:43.203Z,0
2019-03-17T02:26:53.120Z,0
2019-03-17T02:28:03.031Z,0
2019-03-17T02:29:12.963Z,0
2019-03-17T02:30:23.061Z,0
2019-03-17T02:31:32.985Z,0
2019-03-17T02:32:42.913Z,0
2019-03-17T02:33:52.854Z,0
2019-03-17T02:35:02.987Z,0
2019-03-17T02:36:13.055Z,0
2019-03-17T02:37:23.023Z,0
2019-03-17T02:38:32.960Z,0
2019-03-17T02:39:42.908Z,0
2019-03-17T02:40:52.838Z,0
2019-03-17T02:42:02.775Z,0
2019-03-17T02:43:12.722Z,0
2019-03-17T02:44:22.403Z,0
2019-03-17T02:45:32.356Z,0
2019-03-17T02:46:42.287Z,0
2019-03-17T02:47:52.263Z,0
2019-03-17T02:49:02.194Z,0
2019-03-17T02:50:12.148Z,0
2019-03-17T02:51:22.201Z,0
2019-03-17T02:52:32.151Z,0
2019-03-17T02:53:42.188Z,0
2019-03-17T02:54:52.125Z,0
2019-03-17T02:56:02.093Z,0
2019-03-17T02:57:11.762Z,0
2019-03-17T02:58:21.750Z,0
2019-03-17T02:59:31.838Z,0
2019-03-17T03:00:41.528Z,0
2019-03-17T03:01:51.516Z,0
2019-03-17T03:03:01.450Z,0
2019-03-17T03:04:11.387Z,0
2019-03-17T03:05:21.379Z,0
2019-03-17T03:06:31.313Z,0
2019-03-17T03:07:41.253Z,0
2019-03-17T03:08:51.182Z,0
2019-03-17T03:10:01.129Z,0
2019-03-17T03:11:10.888Z,0
2019-03-17T03:12:20.824Z,0
2019-03-17T03:13:30.751Z,0
2019-03-17T03:14:40.688Z,0
2019-03-17T03:15:50.662Z,0
2019-03-17T03:17:00.643Z,0
2019-03-17T03:18:10.569Z,0
2019-03-17T03:19:20.544Z,0
2019-03-17T03:20:30.265Z,0
2019-03-17T03:21:40.193Z,0
2019-03-17T03:22:50.183Z,0
2019-03-17T03:24:00.134Z,0
2019-03-17T03:25:09.986Z,0
2019-03-17T03:26:19.928Z,0
2019-03-17T03:27:29.609Z,0
2019-03-17T03:28:39.677Z,0
2019-03-17T03:29:49.367Z,0
2019-03-17T03:30:59.194Z,0
2019-03-17T03:32:09.167Z,0
2019-03-17T03:33:19.165Z,0
2019-03-17T03:34:29.307Z,0
2019-03-17T03:35:39.239Z,0
2019-03-17T03:36:49.171Z,0
2019-03-17T03:37:59.098Z,0
2019-03-17T03:39:09.076Z,0
2019-03-17T03:40:19.116Z,0
2019-03-17T03:41:29.123Z,0
2019-03-17T03:42:39.056Z,0
2019-03-17T03:43:48.985Z,0
2019-03-17T03:44:58.961Z,0
2019-03-17T03:46:08.968Z,0
2019-03-17T03:47:18.907Z,0
2019-03-17T03:48:28.840Z,0
2019-03-17T03:49:38.545Z,0
2019-03-17T03:50:48.490Z,0
2019-03-17T03:51:58.544Z,0
2019-03-17T03:53:08.481Z,0
2019-03-17T03:54:18.161Z,0
2019-03-17T03:55:28.152Z,0
2019-03-17T03:56:38.124Z,0
2019-03-17T03:57:48.189Z,0
2019-03-17T03:58:58.204Z,0
2019-03-17T04:00:08.155Z,0
2019-03-17T04:01:18.093Z,0
2019-03-17T04:02:28.038Z,0
2019-03-17T04:03:38.132Z,0
2019-03-17T04:04:48.052Z,0
2019-03-17T04:05:57.979Z,0
2019-03-17T04:07:07.729Z,0
2019-03-17T04:08:17.661Z,0
2019-03-17T04:09:27.773Z,0
2019-03-17T04:10:37.716Z,0
2019-03-17T04:11:47.741Z,0
2019-03-17T04:12:57.676Z,0
2019-03-17T04:14:07.610Z,0
2019-03-17T04:15:17.593Z,0
2019-03-17T04:16:27.272Z,0
2019-03-17T04:17:37.235Z,0
2019-03-17T04:18:47.165Z,0
2019-03-17T04:19:57.114Z,0
2019-03-17T04:21:07.159Z,0
2019-03-17T04:22:17.093Z,0
2019-03-17T04:23:27.019Z,0
2019-03-17T04:24:36.959Z,0
2019-03-17T04:25:46.889Z,0
2019-03-17T04:26:56.727Z,0
2019-03-17T04:28:06.672Z,0
2019-03-17T04:29:16.589Z,0
2019-03-17T04:30:26.523Z,0
2019-03-17T04:31:36.465Z,0
2019-03-17T04:32:46.490Z,0
2019-03-17T04:33:56.416Z,0
2019-03-17T04:35:06.343Z,0
2019-03-17T04:36:16.330Z,0
2019-03-17T04:37:26.252Z,0
2019-03-17T04:38:36.276Z,0
2019-03-17T04:39:46.202Z,0
2019-03-17T04:40:55.884Z,0
2019-03-17T04:42:05.799Z,0
2019-03-17T04:43:15.722Z,0
2019-03-17T04:44:30.404Z,0
2019-03-17T04:45:40.065Z,0
2019-03-17T04:46:50.013Z,0
2019-03-17T04:47:59.932Z,0
2019-03-17T04:49:10.038Z,0
2019-03-17T04:50:19.956Z,0
2019-03-17T04:51:29.871Z,0
2019-03-17T04:52:39.801Z,0
2019-03-17T04:53:49.721Z,0
2019-03-17T04:54:59.639Z,0
2019-03-17T04:56:09.655Z,0
2019-03-17T04:57:19.594Z,0
2019-03-17T04:58:29.586Z,0
2019-03-17T04:59:39.495Z,0
2019-03-17T05:00:49.427Z,0
2019-03-17T05:01:59.447Z,0
2019-03-17T05:03:09.369Z,0
2019-03-17T05:04:19.304Z,0
2019-03-17T05:05:29.227Z,0
2019-03-17T05:06:47.796Z,0
2019-03-17T05:08:01.782Z,0
2019-03-17T05:09:11.719Z,0
2019-03-17T05:10:22.816Z,0
2019-03-17T05:11:32.922Z,0
2019-03-17T05:12:42.845Z,0
2019-03-17T05:13:52.816Z,0
2019-03-17T05:15:02.844Z,0
2019-03-17T05:16:12.774Z,0
2019-03-17T05:17:22.691Z,0
2019-03-17T05:18:32.609Z,0
2019-03-17T05:19:42.633Z,0
2019-03-17T05:20:52.558Z,0
2019-03-17T05:22:02.488Z,0
2019-03-17T05:23:15.440Z,0
2019-03-17T05:24:25.368Z,0
2019-03-17T05:25:35.389Z,0
2019-03-17T05:26:45.308Z,0
2019-03-17T05:27:55.235Z,0
2019-03-17T05:29:05.156Z,0
2019-03-17T05:30:14.890Z,5
2019-03-17T05:31:24.977Z,5
2019-03-17T05:32:34.890Z,5
2019-03-17T05:33:44.803Z,5
2019-03-17T05:34:54.745Z,5
2019-03-17T05:36:04.740Z,5
2019-03-17T05:37:16.447Z,5
2019-03-17T05:38:26.379Z,5
2019-03-17T05:39:36.293Z,5
2019-03-17T05:40:46.227Z,5
2019-03-17T05:41:56.148Z,10
2019-03-17T05:43:06.160Z,10
2019-03-17T05:44:16.080Z,10
2019-03-17T05:45:25.993Z,10
2019-03-17T05:46:35.926Z,10
2019-03-17T05:47:45.852Z,15
2019-03-17T05:48:55.870Z,15
2019-03-17T05:50:05.804Z,20
2019-03-17T05:51:15.723Z,20
2019-03-17T05:52:25.641Z,20
2019-03-17T05:53:35.555Z,20
2019-03-17T05:54:45.570Z,15
2019-03-17T05:55:55.499Z,15
2019-03-17T05:57:05.426Z,20
2019-03-17T05:58:15.351Z,20
2019-03-17T05:59:26.960Z,20
2019-03-17T06:00:36.980Z,20
2019-03-17T06:01:46.896Z,20
2019-03-17T06:02:56.906Z,25
2019-03-17T06:04:06.830Z,30
2019-03-17T06:05:16.796Z,30
2019-03-17T06:06:26.519Z,35
2019-03-17T06:07:36.446Z,35
2019-03-17T06:08:46.367Z,35
2019-03-17T06:09:56.418Z,35
2019-03-17T06:11:06.337Z,40
2019-03-17T06:12:16.308Z,40
2019-03-17T06:13:26.227Z,40
2019-03-17T06:14:36.150Z,40
2019-03-17T06:15:45.843Z,40
2019-03-17T06:16:55.774Z,40
2019-03-17T06:18:05.745Z,45
2019-03-17T06:19:15.664Z,50
2019-03-17T06:20:25.591Z,55
2019-03-17T06:21:35.511Z,55
2019-03-17T06:22:45.481Z,55
2019-03-17T06:23:55.451Z,55
2019-03-17T06:25:05.381Z,60
2019-03-17T06:26:15.305Z,65
2019-03-17T06:27:25.244Z,70
2019-03-17T06:28:35.167Z,80
2019-03-17T06:29:45.132Z,90
2019-03-17T06:30:55.049Z,105
2019-03-17T06:32:04.971Z,110
2019-03-17T06:33:14.639Z,110
2019-03-17T06:34:26.799Z,100
2019-03-17T06:35:36.820Z,90
2019-03-17T06:36:46.552Z,85
2019-03-17T06:37:56.479Z,80
2019-03-17T06:39:06.403Z,80
2019-03-17T06:40:16.325Z,80
2019-03-17T06:41:26.344Z,80
2019-03-17T06:42:36.267Z,75
2019-03-17T06:43:46.182Z,70
2019-03-17T06:44:56.096Z,70
2019-03-17T06:46:06.011Z,70
2019-03-17T06:47:15.982Z,65
2019-03-17T06:48:25.899Z,65
2019-03-17T06:49:35.867Z,65
2019-03-17T06:50:45.784Z,65
2019-03-17T06:51:55.714Z,70
2019-03-17T06:53:05.632Z,70
2019-03-17T06:54:15.555Z,70
2019-03-17T06:55:25.503Z,70
2019-03-17T06:56:35.422Z,70
2019-03-17T06:57:45.336Z,70
2019-03-17T06:58:55.318Z,70
2019-03-17T07:00:05.234Z,70
2019-03-17T07:01:15.153Z,70
2019-03-17T07:02:25.072Z,70
2019-03-17T07:03:34.994Z,75
2019-03-17T07:04:45.006Z,75
2019-03-17T07:05:55.005Z,80
2019-03-17T07:07:04.925Z,75
2019-03-17T07:08:14.863Z,80
2019-03-17T07:09:24.814Z,80
2019-03-17T07:10:34.842Z,85
2019-03-17T07:11:44.758Z,85
2019-03-17T07:12:54.675Z,90
2019-03-17T07:14:04.673Z,90
2019-03-17T07:15:14.372Z,85
2019-03-17T07:16:24.418Z,85
2019-03-17T07:17:34.125Z,90
2019-03-17T07:18:44.041Z,95
2019-03-17T07:19:53.960Z,100
2019-03-17T07:21:03.979Z,105
2019-03-17T07:22:14.001Z,115
2019-03-17T07:23:23.935Z,125
2019-03-17T07:24:33.873Z,130
2019-03-17T07:25:43.786Z,130
2019-03-17T07:26:53.702Z,140
2019-03-17T07:28:03.500Z,160
2019-03-17T07:29:13.424Z,165
2019-03-17T07:30:23.369Z,180
2019-03-17T07:31:33.037Z,190
2019-03-17T07:32:42.971Z,190
2019-03-17T07:33:52.817Z,210
2019-03-17T07:35:02.746Z,235
2019-03-17T07:36:12.678Z,250
2019-03-17T07:37:22.594Z,280
2019-03-17T07:38:32.523Z,320
2019-03-17T07:39:42.439Z,335
2019-03-17T07:40:52.363Z,295
2019-03-17T07:42:02.280Z,295
2019-03-17T07:43:12.211Z,285
2019-03-17T07:44:22.133Z,270
2019-03-17T07:45:32.114Z,275
2019-03-17T07:46:42.042Z,265
2019-03-17T07:47:51.966Z,260
2019-03-17T07:49:01.880Z,280
2019-03-17T07:50:11.801Z,265
2019-03-17T07:51:21.819Z,260
2019-03-17T07:52:31.743Z,245
2019-03-17T07:53:41.657Z,280
2019-03-17T07:54:51.578Z,275
2019-03-17T07:56:01.524Z,275
2019-03-17T07:57:11.591Z,290
2019-03-17T07:58:21.517Z,300
2019-03-17T07:59:31.432Z,300
2019-03-17T08:00:42.133Z,305
2019-03-17T08:01:52.067Z,310
2019-03-17T08:03:01.848Z,300
2019-03-17T08:04:11.791Z,300
2019-03-17T08:05:21.773Z,300
2019-03-17T08:06:31.699Z,305
2019-03-17T08:07:41.635Z,300
2019-03-17T08:08:52.247Z,310
2019-03-17T08:10:02.170Z,305
2019-03-17T08:11:12.103Z,320
2019-03-17T08:12:22.021Z,320
2019-03-17T08:13:31.962Z,330
2019-03-17T08:14:41.944Z,335
2019-03-17T08:15:51.868Z,325
2019-03-17T08:17:01.830Z,335
2019-03-17T08:18:11.748Z,360
2019-03-17T08:19:21.413Z,390
2019-03-17T08:20:31.330Z,430
2019-03-17T08:21:43.246Z,455
2019-03-17T08:22:53.312Z,440
2019-03-17T08:24:03.238Z,450
2019-03-17T08:25:13.172Z,435
2019-03-17T08:26:23.143Z,420
2019-03-17T08:27:33.060Z,390
2019-03-17T08:28:42.980Z,365
2019-03-17T08:29:52.650Z,345
2019-03-17T08:31:03.314Z,350
2019-03-17T08:32:13.304Z,375
2019-03-17T08:33:23.230Z,375
2019-03-17T08:34:33.155Z,365
2019-03-17T08:35:43.080Z,365
2019-03-17T08:36:53.042Z,375
2019-03-17T08:38:03.232Z,395
2019-03-17T08:39:13.150Z,410
2019-03-17T08:40:23.072Z,425
2019-03-17T08:41:32.993Z,460
2019-03-17T08:42:42.920Z,525
2019-03-17T08:44:03.725Z,605
2019-03-17T08:45:13.399Z,640
2019-03-17T08:46:23.068Z,690
2019-03-17T08:47:32.993Z,755
2019-03-17T08:48:42.914Z,760
2019-03-17T08:49:52.941Z,710
2019-03-17T08:51:02.866Z,620
2019-03-17T08:52:12.819Z,585
2019-03-17T08:53:22.742Z,580
2019-03-17T08:54:32.664Z,560
2019-03-17T08:55:42.683Z,525
2019-03-17T08:56:52.606Z,535
2019-03-17T08:58:02.569Z,555
2019-03-17T08:59:12.491Z,560
2019-03-17T09:00:22.415Z,555
2019-03-17T09:01:32.434Z,550
2019-03-17T09:02:42.360Z,525
2019-03-17T09:03:52.277Z,530
2019-03-17T09:05:02.204Z,545
2019-03-17T09:06:12.128Z,565
2019-03-17T09:07:22.044Z,575
2019-03-17T09:08:44.004Z,575
2019-03-17T09:09:53.927Z,570
2019-03-17T09:11:03.842Z,580
2019-03-17T09:12:13.864Z,630
2019-03-17T09:13:23.786Z,700
2019-03-17T09:14:33.710Z,775
2019-03-17T09:15:43.638Z,840
2019-03-17T09:16:53.564Z,850
2019-03-17T09:18:03.587Z,875
2019-03-17T09:19:13.525Z,950
2019-03-17T09:20:23.450Z,1060
2019-03-17T09:21:33.372Z,1120
2019-03-17T09:22:43.534Z,1090
2019-03-17T09:23:53.515Z,965
2019-03-17T09:25:03.197Z,910
2019-03-17T09:26:13.123Z,870
2019-03-17T09:27:23.044Z,775
2019-03-17T09:28:32.973Z,705
2019-03-17T09:29:43.002Z,675
2019-03-17T09:30:52.939Z,690
2019-03-17T09:32:02.864Z,780
2019-03-17T09:33:12.781Z,840
2019-03-17T09:34:22.701Z,895
2019-03-17T09:35:32.722Z,960
2019-03-17T09:36:42.397Z,995
2019-03-17T09:37:52.324Z,990
2019-03-17T09:39:02.254Z,915
2019-03-17T09:40:12.254Z,940
2019-03-17T09:41:22.224Z,820
2019-03-17T09:42:32.152Z,760
2019-03-17T09:43:42.073Z,750
2019-03-17T09:44:51.996Z,780
2019-03-17T09:46:01.920Z,790
2019-03-17T09:47:11.947Z,795
2019-03-17T09:48:21.925Z,810
2019-03-17T09:49:31.848Z,800
2019-03-17T09:50:41.547Z,735
2019-03-17T09:51:51.473Z,695
2019-03-17T09:53:01.401Z,695
2019-03-17T09:54:11.320Z,760
2019-03-17T09:55:21.260Z,880
2019-03-17T09:56:31.191Z,1050
2019-03-17T09:57:41.116Z,1240
2019-03-17T09:58:52.939Z,1195
2019-03-17T10:00:02.947Z,975
2019-03-17T10:01:12.874Z,835
2019-03-17T10:02:22.797Z,705
2019-03-17T10:03:32.722Z,585
2019-03-17T10:04:42.745Z,565
2019-03-17T10:05:54.357Z,570
2019-03-17T10:07:04.277Z,590
2019-03-17T10:08:14.211Z,615
2019-03-17T10:09:24.131Z,625
2019-03-17T10:10:34.162Z,625
2019-03-17T10:11:44.089Z,635
2019-03-17T10:12:54.013Z,670
2019-03-17T10:14:03.944Z,670
2019-03-17T10:15:13.865Z,660
2019-03-17T10:16:23.837Z,655
2019-03-17T10:17:33.755Z,650
2019-03-17T10:18:43.678Z,640
2019-03-17T10:19:53.702Z,645
2019-03-17T10:21:03.638Z,665
2019-03-17T10:22:13.667Z,690
2019-03-17T10:23:23.348Z,695
2019-03-17T10:24:33.267Z,680
2019-03-17T10:25:43.193Z,640
2019-03-17T10:26:53.115Z,630
2019-03-17T10:28:02.835Z,620
2019-03-17T10:29:12.759Z,600
2019-03-17T10:30:22.719Z,575
2019-03-17T10:31:32.653Z,540
2019-03-17T10:32:42.612Z,535
2019-03-17T10:33:55.026Z,525
2019-03-17T10:35:04.961Z,535
2019-03-17T10:36:14.886Z,535
2019-03-17T10:37:24.811Z,535
2019-03-17T10:38:34.751Z,540
2019-03-17T10:39:44.814Z,545
2019-03-17T10:40:54.732Z,535
2019-03-17T10:42:04.401Z,550
2019-03-17T10:43:14.324Z,560
2019-03-17T10:44:24.242Z,565
2019-03-17T10:45:34.267Z,555
2019-03-17T10:46:43.946Z,545
2019-03-17T10:47:56.879Z,555
2019-03-17T10:49:06.826Z,575
2019-03-17T10:50:16.748Z,580
2019-03-17T10:51:26.843Z,595
2019-03-17T10:52:36.840Z,595
2019-03-17T10:53:46.760Z,595
2019-03-17T10:54:56.679Z,620
2019-03-17T10:56:06.601Z,620
2019-03-17T10:57:16.581Z,640
2019-03-17T10:58:26.509Z,625
2019-03-17T10:59:37.473Z,605
2019-03-17T11:00:47.396Z,590
2019-03-17T11:01:57.319Z,555
2019-03-17T11:03:07.292Z,520
2019-03-17T11:04:16.968Z,500
2019-03-17T11:05:27.012Z,515
2019-03-17T11:06:36.931Z,525
2019-03-17T11:07:46.881Z,525
2019-03-17T11:08:56.855Z,510
2019-03-17T11:10:06.781Z,490
2019-03-17T11:11:19.420Z,475
2019-03-17T11:12:29.091Z,470
2019-03-17T11:13:39.020Z,440
2019-03-17T11:14:49.035Z,415
2019-03-17T11:15:58.962Z,405
2019-03-17T11:17:08.886Z,400
2019-03-17T11:18:18.807Z,420
2019-03-17T11:19:30.623Z,445
2019-03-17T11:20:40.723Z,460
2019-03-17T11:21:50.684Z,435
2019-03-17T11:23:00.606Z,425
2019-03-17T11:24:10.537Z,465
2019-03-17T11:25:20.460Z,530
2019-03-17T11:26:30.480Z,550
2019-03-17T11:27:40.420Z,565
2019-03-17T11:28:50.345Z,590
2019-03-17T11:30:00.381Z,600
2019-03-17T11:31:10.404Z,615
2019-03-17T11:32:20.433Z,610
2019-03-17T11:33:30.383Z,605
2019-03-17T11:34:40.313Z,575
2019-03-17T11:35:50.233Z,540
2019-03-17T11:37:00.152Z,495
2019-03-17T11:38:10.192Z,440
2019-03-17T11:39:20.111Z,450
2019-03-17T11:40:30.050Z,525
2019-03-17T11:41:39.983Z,575
2019-03-17T11:42:52.555Z,600
2019-03-17T11:44:02.522Z,590
2019-03-17T11:45:12.451Z,575
2019-03-17T11:46:22.376Z,545
2019-03-17T11:47:32.296Z,515
2019-03-17T11:48:42.217Z,505
2019-03-17T11:49:53.468Z,520
2019-03-17T11:51:03.403Z,530
2019-03-17T11:52:13.321Z,555
2019-03-17T11:53:22.993Z,545
2019-03-17T11:54:32.917Z,540
2019-03-17T11:55:42.901Z,545
2019-03-17T11:56:52.838Z,530
2019-03-17T11:58:02.762Z,555
2019-03-17T11:59:12.696Z,505
2019-03-17T12:00:22.619Z,485
2019-03-17T12:01:32.629Z,495
2019-03-17T12:02:42.551Z,495
2019-03-17T12:03:52.494Z,510
2019-03-17T12:05:02.414Z,500
2019-03-17T12:06:12.337Z,525
2019-03-17T12:07:22.278Z,530
2019-03-17T12:08:32.204Z,525
2019-03-17T12:09:54.404Z,545
2019-03-17T12:11:04.072Z,590
2019-03-17T12:12:14.094Z,645
2019-03-17T12:13:24.019Z,675
2019-03-17T12:14:33.958Z,690
2019-03-17T12:15:43.890Z,725
2019-03-17T12:16:53.811Z,705
2019-03-17T12:18:03.798Z,690
2019-03-17T12:19:13.721Z,675
2019-03-17T12:20:23.705Z,650
2019-03-17T12:21:33.630Z,640
2019-03-17T12:22:43.558Z,620
2019-03-17T12:23:53.542Z,610
2019-03-17T12:25:03.482Z,590
2019-03-17T12:26:13.421Z,605
2019-03-17T12:27:23.341Z,555
2019-03-17T12:28:33.267Z,555
2019-03-17T12:29:43.246Z,560
2019-03-17T12:30:53.171Z,535
2019-03-17T12:32:02.855Z,515
2019-03-17T12:33:12.784Z,505
2019-03-17T12:34:35.022Z,495
2019-03-17T12:35:44.952Z,470
2019-03-17T12:36:54.874Z,465
2019-03-17T12:38:04.794Z,445
2019-03-17T12:39:14.722Z,430
2019-03-17T12:40:24.752Z,425
2019-03-17T12:41:34.674Z,405
2019-03-17T12:42:44.646Z,380
2019-03-17T12:43:54.574Z,340
2019-03-17T12:45:04.572Z,340
2019-03-17T12:46:14.592Z,325
2019-03-17T12:47:24.512Z,325
2019-03-17T12:48:34.183Z,335
2019-03-17T12:49:44.102Z,335
2019-03-17T12:50:54.023Z,330
2019-03-17T12:52:04.052Z,330
2019-03-17T12:53:15.252Z,335
2019-03-17T12:54:25.178Z,325
2019-03-17T12:55:35.191Z,315
2019-03-17T12:56:45.112Z,315
2019-03-17T12:57:55.096Z,310
2019-03-17T12:59:05.019Z,295
2019-03-17T13:00:14.945Z,280
2019-03-17T13:01:24.866Z,280
2019-03-17T13:02:34.802Z,275
2019-03-17T13:03:44.831Z,285
2019-03-17T13:04:54.755Z,305
2019-03-17T13:06:04.680Z,330
2019-03-17T13:07:14.601Z,330
2019-03-17T13:08:24.521Z,335
2019-03-17T13:09:34.514Z,340
2019-03-17T13:10:44.446Z,345
2019-03-17T13:11:54.366Z,345
2019-03-17T13:13:04.358Z,335
2019-03-17T13:14:16.501Z,340
2019-03-17T13:15:26.526Z,340
2019-03-17T13:16:36.455Z,330
2019-03-17T13:17:46.377Z,330
2019-03-17T13:18:56.323Z,335
2019-03-17T13:20:06.247Z,335
2019-03-17T13:21:16.286Z,315
2019-03-17T13:22:26.210Z,310
2019-03-17T13:23:36.131Z,315
2019-03-17T13:24:46.056Z,315
2019-03-17T13:25:55.977Z,325
2019-03-17T13:27:06.001Z,335
2019-03-17T13:28:15.919Z,325
2019-03-17T13:29:25.841Z,315
2019-03-17T13:30:35.506Z,305
2019-03-17T13:31:45.444Z,305
2019-03-17T13:32:55.171Z,315
2019-03-17T13:34:05.097Z,315
2019-03-17T13:35:14.773Z,315
2019-03-17T13:36:24.696Z,320
2019-03-17T13:37:34.633Z,325
2019-03-17T13:38:44.654Z,320
2019-03-17T13:39:54.592Z,320
2019-03-17T13:41:04.510Z,310
2019-03-17T13:42:14.178Z,305
2019-03-17T13:43:24.112Z,305
2019-03-17T13:44:34.084Z,320
2019-03-17T13:45:44.026Z,335
2019-03-17T13:46:53.946Z,330
2019-03-17T13:48:03.888Z,325
2019-03-17T13:49:13.810Z,315
2019-03-17T13:50:23.789Z,310
2019-03-17T13:51:33.808Z,315
2019-03-17T13:52:43.734Z,310
2019-03-17T13:53:53.664Z,320
2019-03-17T13:55:03.587Z,310
2019-03-17T13:56:13.610Z,310
2019-03-17T13:57:23.562Z,300
2019-03-17T13:58:33.483Z,300
2019-03-17T13:59:43.405Z,295
2019-03-17T14:00:53.346Z,290
2019-03-17T14:02:03.281Z,275
2019-03-17T14:03:13.201Z,265
2019-03-17T14:04:25.050Z,255
2019-03-17T14:05:34.985Z,250
2019-03-17T14:06:44.907Z,245
2019-03-17T14:07:54.936Z,240
2019-03-17T14:09:04.856Z,245
2019-03-17T14:10:23.668Z,235
2019-03-17T14:11:33.586Z,230
2019-03-17T14:12:43.506Z,225
2019-03-17T14:13:53.424Z,225
2019-03-17T14:15:03.348Z,230
2019-03-17T14:16:15.586Z,230
2019-03-17T14:17:25.739Z,235
2019-03-17T14:18:35.427Z,230
2019-03-17T14:19:45.450Z,225
2019-03-17T14:20:55.372Z,230
2019-03-17T14:22:05.293Z,230
2019-03-17T14:23:15.220Z,235
2019-03-17T14:24:25.146Z,245
2019-03-17T14:25:36.148Z,250
2019-03-17T14:26:46.147Z,260
2019-03-17T14:27:56.074Z,260
2019-03-17T14:29:06.015Z,260
2019-03-17T14:30:15.933Z,260
2019-03-17T14:31:25.861Z,260
2019-03-17T14:32:35.776Z,260
2019-03-17T14:33:45.700Z,255
2019-03-17T14:34:55.617Z,255
2019-03-17T14:36:05.304Z,255
2019-03-17T14:37:15.164Z,260
2019-03-17T14:38:25.101Z,255
2019-03-17T14:39:34.798Z,265
2019-03-17T14:40:59.685Z,260
2019-03-17T14:42:09.607Z,265
2019-03-17T14:43:19.531Z,255
2019-03-17T14:44:29.448Z,255
2019-03-17T14:45:39.368Z,255
2019-03-17T14:46:49.304Z,250
2019-03-17T14:47:59.304Z,240
2019-03-17T14:49:09.224Z,240
2019-03-17T14:50:19.174Z,230
2019-03-17T14:51:28.842Z,225
2019-03-17T14:52:38.760Z,225
2019-03-17T14:53:48.779Z,220
2019-03-17T14:54:58.693Z,225
2019-03-17T14:56:08.627Z,225
2019-03-17T14:57:18.553Z,225
2019-03-17T14:58:28.475Z,235
2019-03-17T14:59:38.401Z,235
2019-03-17T15:00:48.336Z,235
2019-03-17T15:01:58.261Z,240
2019-03-17T15:03:08.254Z,245
2019-03-17T15:04:18.189Z,235
2019-03-17T15:05:30.142Z,245
2019-03-17T15:06:40.073Z,260
2019-03-17T15:07:50.025Z,255
2019-03-17T15:08:59.958Z,265
2019-03-17T15:10:09.910Z,265
2019-03-17T15:11:19.589Z,265
2019-03-17T15:12:29.507Z,260
2019-03-17T15:13:39.513Z,255
2019-03-17T15:14:49.443Z,245
2019-03-17T15:16:11.915Z,235
2019-03-17T15:17:21.837Z,235
2019-03-17T15:18:31.760Z,230
2019-03-17T15:19:41.442Z,230
2019-03-17T15:20:51.358Z,225
2019-03-17T15:22:01.376Z,215
2019-03-17T15:23:11.042Z,205
2019-03-17T15:24:20.983Z,200
2019-03-17T15:25:30.660Z,200
2019-03-17T15:26:40.611Z,195
2019-03-17T15:27:51.617Z,195
2019-03-17T15:29:01.538Z,195
2019-03-17T15:30:11.465Z,195
2019-03-17T15:31:22.215Z,190
2019-03-17T15:32:32.133Z,180
2019-03-17T15:33:42.071Z,175
2019-03-17T15:34:51.998Z,170
2019-03-17T15:36:01.919Z,165
2019-03-17T15:37:14.592Z,165
2019-03-17T15:38:24.514Z,165
2019-03-17T15:39:34.444Z,160
2019-03-17T15:40:44.367Z,160
2019-03-17T15:41:54.474Z,160
2019-03-17T15:43:04.155Z,155
2019-03-17T15:44:14.073Z,155
2019-03-17T15:45:24.003Z,150
2019-03-17T15:46:33.919Z,150
2019-03-17T15:47:43.838Z,145
2019-03-17T15:48:53.800Z,140
2019-03-17T15:50:03.731Z,135
2019-03-17T15:51:26.685Z,135
2019-03-17T15:52:36.605Z,135
2019-03-17T15:53:46.524Z,130
2019-03-17T15:54:56.443Z,130
2019-03-17T15:56:06.471Z,125
2019-03-17T15:57:16.395Z,125
2019-03-17T15:58:26.318Z,120
2019-03-17T15:59:36.232Z,120
2019-03-17T16:00:46.177Z,115
2019-03-17T16:01:56.119Z,115
2019-03-17T16:03:06.062Z,110
2019-03-17T16:04:15.984Z,110
2019-03-17T16:05:25.922Z,110
2019-03-17T16:06:35.844Z,105
2019-03-17T16:07:52.066Z,105
2019-03-17T16:09:01.991Z,105
2019-03-17T16:10:11.924Z,100
2019-03-17T16:11:33.263Z,100
2019-03-17T16:12:43.295Z,100
2019-03-17T16:13:53.215Z,100
2019-03-17T16:15:03.224Z,100
2019-03-17T16:16:13.171Z,100
2019-03-17T16:17:23.099Z,95
2019-03-17T16:18:33.016Z,90
2019-03-17T16:19:42.966Z,85
2019-03-17T16:20:52.913Z,85
2019-03-17T16:22:02.834Z,80
2019-03-17T16:23:12.759Z,75
2019-03-17T16:24:22.679Z,70
2019-03-17T16:25:32.599Z,70
2019-03-17T16:26:42.543Z,65
2019-03-17T16:27:52.508Z,60
2019-03-17T16:29:02.432Z,60
2019-03-17T16:30:12.356Z,55
2019-03-17T16:31:22.275Z,55
2019-03-17T16:32:32.196Z,50
2019-03-17T16:33:42.111Z,50